sensor_id;sensor_type;location;lat;lon;timestamp;temperature;humidity
43647;DHT22;56152;49.996;18.980;2023-06-24T00:00:54;18.30;94.00
43647;DHT22;56152;49.996;18.980;2023-06-24T00:06:03;18.30;93.90
43647;DHT22;56152;49.996;18.980;2023-06-24T00:11:05;18.30;93.90
43647;DHT22;56152;49.996;18.980;2023-06-24T00:21:55;18.30;93.80
43647;DHT22;56152;49.996;18.980;2023-06-24T00:27:06;18.30;93.80
43647;DHT22;56152;49.996;18.980;2023-06-24T00:32:08;18.20;93.70
43647;DHT22;56152;49.996;18.980;2023-06-24T00:37:13;18.20;93.80
43647;DHT22;56152;49.996;18.980;2023-06-24T00:42:18;18.20;93.80
43647;DHT22;56152;49.996;18.980;2023-06-24T00:47:29;18.10;93.70
43647;DHT22;56152;49.996;18.980;2023-06-24T00:52:33;18.00;93.70
43647;DHT22;56152;49.996;18.980;2023-06-24T00:57:40;18.00;93.80
43647;DHT22;56152;49.996;18.980;2023-06-24T01:02:56;18.00;93.80
43647;DHT22;56152;49.996;18.980;2023-06-24T01:08:00;18.00;93.70
43647;DHT22;56152;49.996;18.980;2023-06-24T01:13:12;18.00;93.80
43647;DHT22;56152;49.996;18.980;2023-06-24T01:18:20;18.00;93.80
43647;DHT22;56152;49.996;18.980;2023-06-24T01:23:59;18.00;93.80
43647;DHT22;56152;49.996;18.980;2023-06-24T01:34:58;17.90;93.80
43647;DHT22;56152;49.996;18.980;2023-06-24T01:40:06;18.00;93.80
43647;DHT22;56152;49.996;18.980;2023-06-24T01:45:14;17.90;93.80
43647;DHT22;56152;49.996;18.980;2023-06-24T01:50:20;17.90;93.80
43647;DHT22;56152;49.996;18.980;2023-06-24T01:55:24;17.90;93.80
43647;DHT22;56152;49.996;18.980;2023-06-24T02:00:29;17.90;93.70
43647;DHT22;56152;49.996;18.980;2023-06-24T02:05:46;17.90;93.70
43647;DHT22;56152;49.996;18.980;2023-06-24T02:10:50;17.90;93.70
43647;DHT22;56152;49.996;18.980;2023-06-24T02:15:53;17.90;93.70
43647;DHT22;56152;49.996;18.980;2023-06-24T02:20:59;17.90;93.70
43647;DHT22;56152;49.996;18.980;2023-06-24T02:32:07;17.80;93.80
43647;DHT22;56152;49.996;18.980;2023-06-24T02:37:10;17.80;93.80
43647;DHT22;56152;49.996;18.980;2023-06-24T02:42:13;17.80;93.80
43647;DHT22;56152;49.996;18.980;2023-06-24T02:47:18;17.80;93.80
43647;DHT22;56152;49.996;18.980;2023-06-24T02:52:23;17.90;93.80
43647;DHT22;56152;49.996;18.980;2023-06-24T02:57:36;17.90;93.80
43647;DHT22;56152;49.996;18.980;2023-06-24T03:02:40;17.90;93.80
43647;DHT22;56152;49.996;18.980;2023-06-24T03:07:45;17.90;93.90
43647;DHT22;56152;49.996;18.980;2023-06-24T03:12:49;17.90;93.80
43647;DHT22;56152;49.996;18.980;2023-06-24T03:17:59;17.90;93.80
43647;DHT22;56152;49.996;18.980;2023-06-24T03:23:02;17.90;93.80
43647;DHT22;56152;49.996;18.980;2023-06-24T03:28:38;17.90;93.80
43647;DHT22;56152;49.996;18.980;2023-06-24T03:33:40;17.90;93.80
43647;DHT22;56152;49.996;18.980;2023-06-24T03:38:46;17.90;93.70
43647;DHT22;56152;49.996;18.980;2023-06-24T03:43:57;18.00;93.70
43647;DHT22;56152;49.996;18.980;2023-06-24T03:49:00;17.90;94.10
43647;DHT22;56152;49.996;18.980;2023-06-24T03:54:16;17.90;93.90
43647;DHT22;56152;49.996;18.980;2023-06-24T04:04:52;17.90;93.90
43647;DHT22;56152;49.996;18.980;2023-06-24T04:10:03;17.90;94.00
43647;DHT22;56152;49.996;18.980;2023-06-24T04:15:09;17.90;94.00
43647;DHT22;56152;49.996;18.980;2023-06-24T04:20:35;17.90;94.00
43647;DHT22;56152;49.996;18.980;2023-06-24T04:25:42;17.90;94.30
43647;DHT22;56152;49.996;18.980;2023-06-24T04:30:57;18.00;94.10
43647;DHT22;56152;49.996;18.980;2023-06-24T04:35:59;18.00;94.10
43647;DHT22;56152;49.996;18.980;2023-06-24T04:41:05;18.00;94.20
43647;DHT22;56152;49.996;18.980;2023-06-24T04:46:08;18.00;94.20
43647;DHT22;56152;49.996;18.980;2023-06-24T04:51:10;18.10;94.20
43647;DHT22;56152;49.996;18.980;2023-06-24T04:56:13;18.10;94.20
43647;DHT22;56152;49.996;18.980;2023-06-24T05:01:15;18.10;94.30
43647;DHT22;56152;49.996;18.980;2023-06-24T05:06:18;18.10;94.30
43647;DHT22;56152;49.996;18.980;2023-06-24T05:11:25;18.10;94.30
43647;DHT22;56152;49.996;18.980;2023-06-24T05:16:27;18.10;94.40
43647;DHT22;56152;49.996;18.980;2023-06-24T05:21:29;18.10;94.50
43647;DHT22;56152;49.996;18.980;2023-06-24T05:26:46;18.10;94.60
43647;DHT22;56152;49.996;18.980;2023-06-24T05:31:49;18.10;94.70
43647;DHT22;56152;49.996;18.980;2023-06-24T05:36:57;18.10;94.70
43647;DHT22;56152;49.996;18.980;2023-06-24T05:42:02;18.10;94.70
43647;DHT22;56152;49.996;18.980;2023-06-24T05:47:10;18.20;94.80
43647;DHT22;56152;49.996;18.980;2023-06-24T05:52:14;18.20;94.80
43647;DHT22;56152;49.996;18.980;2023-06-24T05:57:27;18.30;94.80
43647;DHT22;56152;49.996;18.980;2023-06-24T06:02:29;18.40;94.90
43647;DHT22;56152;49.996;18.980;2023-06-24T06:07:37;18.40;94.90
43647;DHT22;56152;49.996;18.980;2023-06-24T06:12:42;18.40;95.00
43647;DHT22;56152;49.996;18.980;2023-06-24T06:17:46;18.40;95.10
43647;DHT22;56152;49.996;18.980;2023-06-24T06:22:50;18.50;95.10
43647;DHT22;56152;49.996;18.980;2023-06-24T06:27:54;18.50;95.10
43647;DHT22;56152;49.996;18.980;2023-06-24T06:32:58;18.40;95.20
43647;DHT22;56152;49.996;18.980;2023-06-24T06:38:01;18.40;95.10
43647;DHT22;56152;49.996;18.980;2023-06-24T06:43:05;18.40;95.10
43647;DHT22;56152;49.996;18.980;2023-06-24T06:48:13;18.30;95.10
43647;DHT22;56152;49.996;18.980;2023-06-24T06:53:17;18.30;95.10
43647;DHT22;56152;49.996;18.980;2023-06-24T06:58:21;18.20;95.10
43647;DHT22;56152;49.996;18.980;2023-06-24T07:03:42;18.20;95.10
43647;DHT22;56152;49.996;18.980;2023-06-24T07:08:43;18.10;95.10
43647;DHT22;56152;49.996;18.980;2023-06-24T07:13:47;18.10;95.10
43647;DHT22;56152;49.996;18.980;2023-06-24T07:18:51;18.10;95.30
43647;DHT22;56152;49.996;18.980;2023-06-24T07:23:53;18.20;94.90
43647;DHT22;56152;49.996;18.980;2023-06-24T07:29:06;18.20;94.80
43647;DHT22;56152;49.996;18.980;2023-06-24T07:34:09;18.30;94.70
43647;DHT22;56152;49.996;18.980;2023-06-24T07:39:13;18.30;94.50
43647;DHT22;56152;49.996;18.980;2023-06-24T07:44:29;18.40;94.40
43647;DHT22;56152;49.996;18.980;2023-06-24T07:49:31;18.40;94.30
43647;DHT22;56152;49.996;18.980;2023-06-24T07:54:35;18.40;94.20
43647;DHT22;56152;49.996;18.980;2023-06-24T07:59:42;18.40;94.10
43647;DHT22;56152;49.996;18.980;2023-06-24T08:04:44;18.40;94.10
43647;DHT22;56152;49.996;18.980;2023-06-24T08:09:54;18.50;94.10
43647;DHT22;56152;49.996;18.980;2023-06-24T08:15:00;18.50;94.00
43647;DHT22;56152;49.996;18.980;2023-06-24T08:20:13;18.60;93.90
43647;DHT22;56152;49.996;18.980;2023-06-24T08:25:15;18.60;93.60
43647;DHT22;56152;49.996;18.980;2023-06-24T08:30:20;18.70;93.50
43647;DHT22;56152;49.996;18.980;2023-06-24T08:41:25;18.70;93.40
43647;DHT22;56152;49.996;18.980;2023-06-24T08:46:29;18.70;93.20
43647;DHT22;56152;49.996;18.980;2023-06-24T08:51:41;18.60;93.20
43647;DHT22;56152;49.996;18.980;2023-06-24T08:56:44;18.50;93.20
43647;DHT22;56152;49.996;18.980;2023-06-24T09:01:48;18.60;93.10
43647;DHT22;56152;49.996;18.980;2023-06-24T09:07:06;18.60;93.10
43647;DHT22;56152;49.996;18.980;2023-06-24T09:12:14;18.60;92.90
43647;DHT22;56152;49.996;18.980;2023-06-24T09:17:19;18.60;92.90
43647;DHT22;56152;49.996;18.980;2023-06-24T09:22:23;18.70;92.90
43647;DHT22;56152;49.996;18.980;2023-06-24T09:27:32;18.70;92.80
43647;DHT22;56152;49.996;18.980;2023-06-24T09:32:35;18.70;92.70
43647;DHT22;56152;49.996;18.980;2023-06-24T09:37:40;18.70;92.70
43647;DHT22;56152;49.996;18.980;2023-06-24T09:42:54;18.70;92.70
43647;DHT22;56152;49.996;18.980;2023-06-24T09:47:59;18.80;92.80
43647;DHT22;56152;49.996;18.980;2023-06-24T09:53:03;18.90;92.60
43647;DHT22;56152;49.996;18.980;2023-06-24T09:58:08;18.90;92.60
43647;DHT22;56152;49.996;18.980;2023-06-24T10:03:12;19.00;92.50
43647;DHT22;56152;49.996;18.980;2023-06-24T10:08:36;19.20;92.40
43647;DHT22;56152;49.996;18.980;2023-06-24T10:13:39;19.30;92.30
43647;DHT22;56152;49.996;18.980;2023-06-24T10:18:59;19.30;92.10
43647;DHT22;56152;49.996;18.980;2023-06-24T10:24:04;19.40;92.00
43647;DHT22;56152;49.996;18.980;2023-06-24T10:29:17;19.50;91.80
43647;DHT22;56152;49.996;18.980;2023-06-24T10:34:41;19.40;91.70
43647;DHT22;56152;49.996;18.980;2023-06-24T10:39:52;19.50;91.70
43647;DHT22;56152;49.996;18.980;2023-06-24T10:44:56;19.60;91.40
43647;DHT22;56152;49.996;18.980;2023-06-24T10:50:03;19.60;91.20
43647;DHT22;56152;49.996;18.980;2023-06-24T10:55:06;19.60;91.10
43647;DHT22;56152;49.996;18.980;2023-06-24T11:00:13;19.60;91.20
43647;DHT22;56152;49.996;18.980;2023-06-24T11:05:18;19.60;91.30
43647;DHT22;56152;49.996;18.980;2023-06-24T11:10:23;19.60;91.20
43647;DHT22;56152;49.996;18.980;2023-06-24T11:15:31;19.60;91.30
43647;DHT22;56152;49.996;18.980;2023-06-24T11:20:37;19.50;91.30
43647;DHT22;56152;49.996;18.980;2023-06-24T11:25:41;19.30;91.40
43647;DHT22;56152;49.996;18.980;2023-06-24T11:30:44;19.20;91.50
43647;DHT22;56152;49.996;18.980;2023-06-24T11:35:55;19.10;91.50
43647;DHT22;56152;49.996;18.980;2023-06-24T11:40:57;19.00;91.60
43647;DHT22;56152;49.996;18.980;2023-06-24T11:46:00;19.00;91.60
43647;DHT22;56152;49.996;18.980;2023-06-24T11:51:03;19.00;91.60
43647;DHT22;56152;49.996;18.980;2023-06-24T11:56:17;18.90;91.50
43647;DHT22;56152;49.996;18.980;2023-06-24T12:01:31;18.80;91.40
43647;DHT22;56152;49.996;18.980;2023-06-24T12:06:38;18.70;91.50
43647;DHT22;56152;49.996;18.980;2023-06-24T12:11:47;18.70;91.30
43647;DHT22;56152;49.996;18.980;2023-06-24T12:16:50;18.70;91.50
43647;DHT22;56152;49.996;18.980;2023-06-24T12:21:58;18.60;91.40
43647;DHT22;56152;49.996;18.980;2023-06-24T12:27:02;18.50;91.40
43647;DHT22;56152;49.996;18.980;2023-06-24T12:32:11;18.50;91.40
43647;DHT22;56152;49.996;18.980;2023-06-24T12:37:15;18.50;91.40
43647;DHT22;56152;49.996;18.980;2023-06-24T12:42:18;18.40;91.50
43647;DHT22;56152;49.996;18.980;2023-06-24T12:47:23;18.40;91.50
43647;DHT22;56152;49.996;18.980;2023-06-24T12:52:28;18.30;91.60
43647;DHT22;56152;49.996;18.980;2023-06-24T12:57:33;18.30;91.70
43647;DHT22;56152;49.996;18.980;2023-06-24T13:02:37;18.20;91.80
43647;DHT22;56152;49.996;18.980;2023-06-24T13:07:43;18.20;91.70
43647;DHT22;56152;49.996;18.980;2023-06-24T13:12:45;18.10;91.70
43647;DHT22;56152;49.996;18.980;2023-06-24T13:18:01;18.10;91.80
43647;DHT22;56152;49.996;18.980;2023-06-24T13:23:25;18.00;91.80
43647;DHT22;56152;49.996;18.980;2023-06-24T13:28:38;17.90;91.90
43647;DHT22;56152;49.996;18.980;2023-06-24T13:33:41;17.90;91.90
43647;DHT22;56152;49.996;18.980;2023-06-24T13:38:50;17.90;91.90
43647;DHT22;56152;49.996;18.980;2023-06-24T13:43:53;17.80;91.70
43647;DHT22;56152;49.996;18.980;2023-06-24T13:49:04;17.80;91.80
43647;DHT22;56152;49.996;18.980;2023-06-24T13:54:09;17.70;91.70
43647;DHT22;56152;49.996;18.980;2023-06-24T13:59:11;17.60;91.60
43647;DHT22;56152;49.996;18.980;2023-06-24T14:04:15;17.60;91.60
43647;DHT22;56152;49.996;18.980;2023-06-24T14:09:19;17.70;91.50
43647;DHT22;56152;49.996;18.980;2023-06-24T14:14:24;17.70;91.50
43647;DHT22;56152;49.996;18.980;2023-06-24T14:19:27;17.70;91.50
43647;DHT22;56152;49.996;18.980;2023-06-24T14:24:57;17.70;91.50
43647;DHT22;56152;49.996;18.980;2023-06-24T14:29:59;17.80;91.30
43647;DHT22;56152;49.996;18.980;2023-06-24T14:35:01;17.80;91.20
43647;DHT22;56152;49.996;18.980;2023-06-24T14:40:08;17.90;91.10
43647;DHT22;56152;49.996;18.980;2023-06-24T14:45:11;18.00;91.10
43647;DHT22;56152;49.996;18.980;2023-06-24T14:50:26;18.00;91.10
43647;DHT22;56152;49.996;18.980;2023-06-24T14:55:30;18.10;90.70
43647;DHT22;56152;49.996;18.980;2023-06-24T15:00:32;18.20;90.50
43647;DHT22;56152;49.996;18.980;2023-06-24T15:05:37;18.30;90.30
43647;DHT22;56152;49.996;18.980;2023-06-24T15:10:41;18.40;90.20
43647;DHT22;56152;49.996;18.980;2023-06-24T15:16:07;18.30;90.00
43647;DHT22;56152;49.996;18.980;2023-06-24T15:21:08;18.40;89.90
43647;DHT22;56152;49.996;18.980;2023-06-24T15:26:15;18.30;89.50
43647;DHT22;56152;49.996;18.980;2023-06-24T15:31:45;18.20;89.20
43647;DHT22;56152;49.996;18.980;2023-06-24T15:36:47;18.10;89.50
43647;DHT22;56152;49.996;18.980;2023-06-24T15:42:11;18.10;89.40
43647;DHT22;56152;49.996;18.980;2023-06-24T15:47:27;18.00;89.30
43647;DHT22;56152;49.996;18.980;2023-06-24T15:52:49;18.00;88.90
43647;DHT22;56152;49.996;18.980;2023-06-24T15:58:08;18.00;88.90
43647;DHT22;56152;49.996;18.980;2023-06-24T16:03:38;18.00;88.90
43647;DHT22;56152;49.996;18.980;2023-06-24T16:08:54;18.00;89.00
43647;DHT22;56152;49.996;18.980;2023-06-24T16:14:16;18.00;89.00
43647;DHT22;56152;49.996;18.980;2023-06-24T16:19:20;18.00;89.00
43647;DHT22;56152;49.996;18.980;2023-06-24T16:30:27;18.00;89.30
43647;DHT22;56152;49.996;18.980;2023-06-24T16:35:29;17.90;89.30
43647;DHT22;56152;49.996;18.980;2023-06-24T16:40:31;17.90;89.40
43647;DHT22;56152;49.996;18.980;2023-06-24T16:45:36;17.90;89.50
43647;DHT22;56152;49.996;18.980;2023-06-24T16:50:55;17.80;89.70
43647;DHT22;56152;49.996;18.980;2023-06-24T16:55:58;17.80;89.80
43647;DHT22;56152;49.996;18.980;2023-06-24T17:01:31;17.80;89.90
43647;DHT22;56152;49.996;18.980;2023-06-24T17:06:38;17.70;90.00
43647;DHT22;56152;49.996;18.980;2023-06-24T17:11:43;17.60;90.10
43647;DHT22;56152;49.996;18.980;2023-06-24T17:16:57;17.60;90.20
43647;DHT22;56152;49.996;18.980;2023-06-24T17:22:00;17.50;90.10
43647;DHT22;56152;49.996;18.980;2023-06-24T17:27:09;17.50;90.30
43647;DHT22;56152;49.996;18.980;2023-06-24T17:32:20;17.50;90.30
43647;DHT22;56152;49.996;18.980;2023-06-24T17:37:23;17.50;90.30
43647;DHT22;56152;49.996;18.980;2023-06-24T17:42:36;17.50;90.40
43647;DHT22;56152;49.996;18.980;2023-06-24T17:47:46;17.40;90.40
43647;DHT22;56152;49.996;18.980;2023-06-24T17:52:53;17.40;90.50
43647;DHT22;56152;49.996;18.980;2023-06-24T17:57:59;17.40;90.60
43647;DHT22;56152;49.996;18.980;2023-06-24T18:03:07;17.40;90.70
43647;DHT22;56152;49.996;18.980;2023-06-24T18:08:15;17.40;90.70
43647;DHT22;56152;49.996;18.980;2023-06-24T18:13:35;17.40;90.70
43647;DHT22;56152;49.996;18.980;2023-06-24T18:18:54;17.30;90.80
43647;DHT22;56152;49.996;18.980;2023-06-24T18:24:03;17.40;90.80
43647;DHT22;56152;49.996;18.980;2023-06-24T18:29:20;17.50;90.80
43647;DHT22;56152;49.996;18.980;2023-06-24T18:34:24;17.40;90.80
43647;DHT22;56152;49.996;18.980;2023-06-24T18:39:27;17.40;90.80
43647;DHT22;56152;49.996;18.980;2023-06-24T18:44:39;17.40;90.90
43647;DHT22;56152;49.996;18.980;2023-06-24T18:50:03;17.40;91.00
43647;DHT22;56152;49.996;18.980;2023-06-24T18:55:10;17.30;91.10
43647;DHT22;56152;49.996;18.980;2023-06-24T19:00:26;17.20;91.10
43647;DHT22;56152;49.996;18.980;2023-06-24T19:05:39;17.20;91.20
43647;DHT22;56152;49.996;18.980;2023-06-24T19:10:46;17.10;91.30
43647;DHT22;56152;49.996;18.980;2023-06-24T19:16:03;17.10;91.40
43647;DHT22;56152;49.996;18.980;2023-06-24T19:21:09;17.00;91.50
43647;DHT22;56152;49.996;18.980;2023-06-24T19:26:11;16.90;91.70
43647;DHT22;56152;49.996;18.980;2023-06-24T19:31:13;16.90;91.70
43647;DHT22;56152;49.996;18.980;2023-06-24T19:36:24;16.80;91.80
43647;DHT22;56152;49.996;18.980;2023-06-24T19:41:26;16.80;91.90
43647;DHT22;56152;49.996;18.980;2023-06-24T19:46:31;16.80;92.10
43647;DHT22;56152;49.996;18.980;2023-06-24T19:51:45;16.70;92.10
43647;DHT22;56152;49.996;18.980;2023-06-24T19:56:47;16.70;92.20
43647;DHT22;56152;49.996;18.980;2023-06-24T20:02:00;16.60;92.20
43647;DHT22;56152;49.996;18.980;2023-06-24T20:07:07;16.50;92.40
43647;DHT22;56152;49.996;18.980;2023-06-24T20:12:10;16.50;92.60
43647;DHT22;56152;49.996;18.980;2023-06-24T20:17:44;16.40;92.70
43647;DHT22;56152;49.996;18.980;2023-06-24T20:23:02;16.30;92.60
43647;DHT22;56152;49.996;18.980;2023-06-24T20:28:07;16.20;92.70
43647;DHT22;56152;49.996;18.980;2023-06-24T20:33:15;16.20;92.90
43647;DHT22;56152;49.996;18.980;2023-06-24T20:38:25;16.00;92.90
43647;DHT22;56152;49.996;18.980;2023-06-24T20:43:28;15.90;92.90
43647;DHT22;56152;49.996;18.980;2023-06-24T20:48:39;15.80;93.00
43647;DHT22;56152;49.996;18.980;2023-06-24T20:54:02;15.70;93.00
43647;DHT22;56152;49.996;18.980;2023-06-24T20:59:06;15.60;93.00
43647;DHT22;56152;49.996;18.980;2023-06-24T21:04:31;15.40;93.00
43647;DHT22;56152;49.996;18.980;2023-06-24T21:09:37;15.40;93.00
43647;DHT22;56152;49.996;18.980;2023-06-24T21:14:40;15.30;93.10
43647;DHT22;56152;49.996;18.980;2023-06-24T21:25:12;15.10;93.20
43647;DHT22;56152;49.996;18.980;2023-06-24T21:30:17;15.00;93.30
43647;DHT22;56152;49.996;18.980;2023-06-24T21:35:20;14.80;93.50
43647;DHT22;56152;49.996;18.980;2023-06-24T21:40:23;14.70;93.70
43647;DHT22;56152;49.996;18.980;2023-06-24T21:45:25;14.70;93.90
43647;DHT22;56152;49.996;18.980;2023-06-24T21:50:27;14.50;93.70
43647;DHT22;56152;49.996;18.980;2023-06-24T21:55:34;14.50;93.70
43647;DHT22;56152;49.996;18.980;2023-06-24T22:00:37;14.40;93.80
43647;DHT22;56152;49.996;18.980;2023-06-24T22:05:40;14.40;93.70
43647;DHT22;56152;49.996;18.980;2023-06-24T22:10:47;14.40;93.60
43647;DHT22;56152;49.996;18.980;2023-06-24T22:15:49;14.30;93.60
43647;DHT22;56152;49.996;18.980;2023-06-24T22:21:05;14.20;93.60
43647;DHT22;56152;49.996;18.980;2023-06-24T22:26:08;14.10;93.60
43647;DHT22;56152;49.996;18.980;2023-06-24T22:31:29;14.00;93.80
43647;DHT22;56152;49.996;18.980;2023-06-24T22:36:31;13.90;93.90
43647;DHT22;56152;49.996;18.980;2023-06-24T22:41:43;13.80;93.90
43647;DHT22;56152;49.996;18.980;2023-06-24T22:46:45;13.80;94.00
43647;DHT22;56152;49.996;18.980;2023-06-24T22:51:47;13.80;94.00
43647;DHT22;56152;49.996;18.980;2023-06-24T22:56:51;13.70;94.00
43647;DHT22;56152;49.996;18.980;2023-06-24T23:01:57;13.60;93.90
43647;DHT22;56152;49.996;18.980;2023-06-24T23:07:02;13.50;94.00
43647;DHT22;56152;49.996;18.980;2023-06-24T23:12:09;13.50;94.00
43647;DHT22;56152;49.996;18.980;2023-06-24T23:17:11;13.40;94.20
43647;DHT22;56152;49.996;18.980;2023-06-24T23:22:18;13.30;94.10
43647;DHT22;56152;49.996;18.980;2023-06-24T23:27:23;13.20;94.00
43647;DHT22;56152;49.996;18.980;2023-06-24T23:32:37;13.10;94.00
43647;DHT22;56152;49.996;18.980;2023-06-24T23:37:48;13.00;94.00
43647;DHT22;56152;49.996;18.980;2023-06-24T23:42:53;12.90;94.10
43647;DHT22;56152;49.996;18.980;2023-06-24T23:47:55;12.90;94.10
43647;DHT22;56152;49.996;18.980;2023-06-24T23:53:00;12.80;94.20
43647;DHT22;56152;49.996;18.980;2023-06-24T23:58:03;12.90;94.30
